createdAt,value
2023-11-12T00:08:51.348Z,85.73
2023-11-12T00:18:55.091Z,85.87
2023-11-12T00:28:58.487Z,85.23
2023-11-12T00:39:01.905Z,85.02
2023-11-12T00:49:06.878Z,85.63
2023-11-12T00:59:10.331Z,86.04
2023-11-12T01:09:13.855Z,86.15
2023-11-12T01:19:17.619Z,86.42
2023-11-12T01:29:21.476Z,85.84
2023-11-12T01:39:25.128Z,85.61
2023-11-12T01:49:29.067Z,85.59
2023-11-12T01:59:35.686Z,85.16
2023-11-12T02:09:39.271Z,85.62
2023-11-12T02:19:42.610Z,85.49
2023-11-12T02:29:50.051Z,86.51
2023-11-12T02:39:53.771Z,86.40
2023-11-12T02:50:03.384Z,86.47
2023-11-12T03:00:10.200Z,86.13
2023-11-12T03:10:13.636Z,85.61
2023-11-12T03:20:17.341Z,86.31
2023-11-12T03:30:20.765Z,86.44
2023-11-12T03:40:25.299Z,86.14
2023-11-12T03:50:28.677Z,86.43
2023-11-12T04:00:33.384Z,85.70
2023-11-12T04:10:36.971Z,86.00
2023-11-12T04:20:40.308Z,85.88
2023-11-12T04:30:44.006Z,86.15
2023-11-12T04:40:50.253Z,86.14
2023-11-12T04:50:54.332Z,85.71
2023-11-12T05:00:57.788Z,85.65
2023-11-12T05:11:01.333Z,85.78
2023-11-12T05:21:06.488Z,86.13
2023-11-12T05:31:11.939Z,85.87
2023-11-12T05:41:15.967Z,85.64
2023-11-12T05:51:21.068Z,85.66
2023-11-12T06:01:24.719Z,85.73
2023-11-12T06:11:27.979Z,85.76
2023-11-12T06:21:31.357Z,85.57
2023-11-12T06:31:35.439Z,85.77
2023-11-12T06:41:38.821Z,86.05
2023-11-12T06:51:42.277Z,86.58
2023-11-12T07:01:47.154Z,86.42
2023-11-12T07:11:50.556Z,86.18
2023-11-12T07:21:53.795Z,86.09
2023-11-12T07:31:57.340Z,86.25
2023-11-12T07:42:00.684Z,86.51
2023-11-12T07:52:04.554Z,85.75
2023-11-12T08:02:07.931Z,84.86
2023-11-12T08:12:11.223Z,85.00
2023-11-12T08:22:14.978Z,84.88
2023-11-12T08:32:19.063Z,85.01
2023-11-12T08:42:22.415Z,84.05
2023-11-12T08:52:26.542Z,83.43
2023-11-12T09:02:29.944Z,84.18
2023-11-12T09:12:33.866Z,84.20
2023-11-12T09:22:37.082Z,84.74
2023-11-12T09:32:40.791Z,84.42
2023-11-12T09:42:53.177Z,83.53
2023-11-12T09:52:56.840Z,82.66
2023-11-12T10:03:01.510Z,82.36
2023-11-12T10:13:05.964Z,82.42
2023-11-12T10:23:32.932Z,82.51
2023-11-12T10:33:38.517Z,81.80
2023-11-12T10:43:57.958Z,81.66
2023-11-12T10:54:04.168Z,81.32
2023-11-12T11:04:10.423Z,81.29
2023-11-12T11:14:31.012Z,81.55
2023-11-12T11:24:45.172Z,82.05
2023-11-12T11:34:50.842Z,81.69
2023-11-12T11:45:00.964Z,80.69
2023-11-12T11:55:13.528Z,79.48
2023-11-12T12:05:32.590Z,78.35
2023-11-12T12:15:37.317Z,77.68
2023-11-12T12:25:53.347Z,75.75
2023-11-12T12:36:00.540Z,74.84
2023-11-12T12:46:06.345Z,74.90
2023-11-12T12:56:10.866Z,75.38
2023-11-12T13:06:16.149Z,74.94
2023-11-12T13:16:19.637Z,75.11
2023-11-12T13:26:23.752Z,74.44
2023-11-12T13:36:28.339Z,74.98
2023-11-12T13:46:33.263Z,74.39
2023-11-12T13:56:38.698Z,74.50
2023-11-12T14:06:42.211Z,74.57
2023-11-12T14:16:46.127Z,74.83
2023-11-12T14:26:49.853Z,76.03
2023-11-12T14:36:53.214Z,76.13
2023-11-12T14:46:56.716Z,76.90
2023-11-12T14:56:59.928Z,77.34
2023-11-12T15:07:03.830Z,77.82
2023-11-12T15:17:07.696Z,78.11
2023-11-12T15:27:11.139Z,78.46
2023-11-12T15:37:15.193Z,78.88
2023-11-12T15:47:21.030Z,78.70
2023-11-12T15:57:24.375Z,79.50
2023-11-12T16:07:27.783Z,79.39
2023-11-12T16:17:33.076Z,79.60
2023-11-12T16:27:36.822Z,79.91
2023-11-12T16:37:48.625Z,80.90
2023-11-12T16:47:52.843Z,80.95
2023-11-12T16:57:56.401Z,81.03
2023-11-12T17:08:00.535Z,81.59
2023-11-12T17:18:03.954Z,82.05
2023-11-12T17:28:07.485Z,82.11
2023-11-12T17:38:11.285Z,81.67
2023-11-12T17:48:16.806Z,81.54
2023-11-12T17:58:21.348Z,81.84
2023-11-12T18:08:25.643Z,82.52
2023-11-12T18:18:32.700Z,82.82
2023-11-12T18:28:38.929Z,83.14
2023-11-12T18:38:42.436Z,83.58
2023-11-12T18:48:45.688Z,83.74
2023-11-12T18:58:54.847Z,83.78
2023-11-12T19:09:00.116Z,83.67
2023-11-12T19:19:04.272Z,83.53
2023-11-12T19:29:07.660Z,83.41
2023-11-12T19:39:14.749Z,84.28
2023-11-12T19:49:18.225Z,84.62
2023-11-12T19:59:21.946Z,84.97
2023-11-12T20:09:25.822Z,85.32
2023-11-12T20:19:29.348Z,85.66
2023-11-12T20:29:34.670Z,85.87
2023-11-12T20:39:40.175Z,86.11
2023-11-12T20:49:44.408Z,86.54
2023-11-12T20:59:49.186Z,86.45
2023-11-12T21:09:54.173Z,86.27
2023-11-12T21:19:59.343Z,86.77
2023-11-12T21:30:03.219Z,86.43
2023-11-12T21:40:07.413Z,86.46
2023-11-12T21:50:17.216Z,87.00
2023-11-12T22:00:22.193Z,86.62
2023-11-12T22:10:25.577Z,86.14
2023-11-12T22:20:31.318Z,86.72
2023-11-12T22:30:34.723Z,87.57
2023-11-12T22:40:38.985Z,88.22
2023-11-12T22:50:42.255Z,88.51
2023-11-12T23:00:51.106Z,88.31
2023-11-12T23:10:59.209Z,88.23
2023-11-12T23:21:09.536Z,87.65
2023-11-12T23:31:13.669Z,87.37
2023-11-12T23:41:17.270Z,87.51
2023-11-12T23:51:21.229Z,87.81
